createdAt,value
2023-05-21T15:07:56.203Z,21.37
2023-05-21T15:09:58.849Z,21.35
2023-05-21T15:12:01.486Z,21.38
2023-05-21T15:14:04.098Z,21.40
2023-05-21T15:16:07.188Z,21.42
2023-05-21T15:18:09.937Z,21.43
2023-05-21T15:20:12.841Z,21.44
2023-05-21T15:22:15.421Z,21.45
2023-05-21T15:24:19.412Z,21.44
2023-05-21T15:26:22.745Z,21.44
2023-05-21T15:28:25.359Z,21.43
2023-05-21T15:30:28.202Z,21.44
2023-05-21T15:32:31.701Z,21.44
2023-05-21T15:34:34.357Z,21.43
2023-05-21T15:36:37.540Z,21.42
2023-05-21T15:38:40.207Z,21.40
2023-05-21T15:40:44.331Z,21.39
2023-05-21T15:42:46.926Z,21.38
2023-05-21T15:44:49.543Z,21.39
2023-05-21T15:46:53.787Z,21.38
2023-05-21T15:48:56.454Z,21.38
2023-05-21T15:50:59.029Z,21.39
2023-05-21T15:53:01.589Z,21.39
2023-05-21T15:55:04.795Z,21.38
2023-05-21T15:57:08.723Z,21.37
2023-05-21T15:59:11.315Z,21.37
2023-05-21T16:01:13.992Z,21.37
2023-05-21T16:03:16.754Z,21.39
2023-05-21T16:05:19.444Z,21.38
2023-05-21T16:07:24.114Z,21.37
2023-05-21T16:09:27.746Z,21.45
2023-05-21T16:11:31.063Z,21.54
2023-05-21T16:13:35.012Z,21.75
2023-05-21T16:15:38.271Z,21.90
2023-05-21T16:17:41.000Z,22.03
2023-05-21T16:19:43.662Z,22.17
2023-05-21T16:21:46.301Z,22.28
2023-05-21T16:23:48.914Z,22.40
2023-05-21T16:25:51.641Z,22.47
2023-05-21T16:27:54.232Z,22.50
2023-05-21T16:29:58.304Z,22.50
2023-05-21T16:32:01.034Z,22.48
2023-05-21T16:34:04.652Z,22.48
2023-05-21T16:36:07.366Z,22.49
2023-05-21T16:38:09.995Z,22.46
2023-05-21T16:40:14.767Z,22.47
2023-05-21T16:42:17.777Z,22.46
2023-05-21T16:44:20.437Z,22.46
2023-05-21T16:46:26.506Z,22.47
2023-05-21T16:48:29.160Z,22.47
2023-05-21T16:50:31.748Z,22.45
2023-05-21T16:52:34.315Z,22.44
2023-05-21T16:54:36.900Z,22.42
2023-05-21T16:56:39.501Z,22.34
2023-05-21T16:58:42.124Z,22.27
2023-05-21T17:00:45.612Z,22.21
2023-05-21T17:02:49.676Z,22.19
2023-05-21T17:04:52.339Z,22.14
2023-05-21T17:06:54.921Z,22.10
2023-05-21T17:08:57.653Z,22.06
2023-05-21T17:11:00.299Z,22.02
2023-05-21T17:13:17.764Z,21.99
2023-05-21T17:15:24.680Z,21.91
2023-05-21T17:17:27.421Z,21.91
2023-05-21T17:19:31.796Z,21.87
2023-05-21T17:21:34.574Z,21.75
2023-05-21T17:23:37.615Z,21.69
2023-05-21T17:25:40.889Z,21.62
2023-05-21T17:27:43.716Z,21.60
2023-05-21T17:29:46.408Z,21.55
2023-05-21T17:31:49.098Z,21.59
2023-05-21T17:33:51.796Z,21.59
2023-05-21T17:35:56.909Z,21.51
2023-05-21T17:37:59.504Z,21.49
2023-05-21T17:40:05.517Z,21.51
2023-05-21T17:42:08.355Z,21.54
2023-05-21T17:44:11.411Z,21.51
2023-05-21T17:46:16.707Z,21.45
2023-05-21T17:48:19.384Z,21.44
2023-05-21T17:50:21.979Z,21.39
2023-05-21T17:52:26.917Z,21.36
2023-05-21T17:54:29.530Z,21.29
2023-05-21T17:56:34.307Z,21.21
2023-05-21T17:58:36.899Z,21.19
2023-05-21T18:00:39.555Z,21.11
2023-05-21T18:02:42.266Z,21.12
2023-05-21T18:04:44.912Z,21.08
2023-05-21T18:06:47.562Z,21.01
2023-05-21T18:08:51.496Z,20.87
2023-05-21T18:10:54.154Z,20.72
2023-05-21T18:12:56.983Z,20.70
2023-05-21T18:14:59.588Z,20.67
2023-05-21T18:17:02.352Z,20.70
2023-05-21T18:19:06.688Z,20.64
2023-05-21T18:21:09.682Z,20.62
2023-05-21T18:23:12.548Z,20.58
2023-05-21T18:25:16.570Z,20.50
2023-05-21T18:27:19.156Z,20.45
2023-05-21T18:29:21.753Z,20.45
2023-05-21T18:31:24.684Z,20.42
2023-05-21T18:33:27.470Z,20.34
2023-05-21T18:35:32.908Z,20.23
2023-05-21T18:37:35.481Z,20.17
2023-05-21T18:39:38.093Z,20.06
2023-05-21T18:41:42.067Z,20.01
2023-05-21T18:43:44.758Z,19.98
2023-05-21T18:45:48.091Z,19.93
2023-05-21T18:47:50.699Z,19.88
2023-05-21T18:49:53.390Z,19.78
2023-05-21T18:51:56.387Z,19.62
2023-05-21T18:53:59.047Z,19.58
2023-05-21T18:56:01.647Z,19.55
2023-05-21T18:58:05.681Z,19.49
2023-05-21T19:00:09.458Z,19.38
2023-05-21T19:02:12.232Z,19.18
2023-05-21T19:04:15.408Z,19.13
2023-05-21T19:06:18.094Z,19.02
2023-05-21T19:08:20.706Z,18.96
2023-05-21T19:10:23.407Z,19.01
2023-05-21T19:12:26.039Z,18.89
2023-05-21T19:14:29.961Z,18.89
2023-05-21T19:16:32.719Z,18.92
2023-05-21T19:18:35.354Z,18.94
2023-05-21T19:20:40.197Z,18.94
2023-05-21T19:22:42.840Z,19.01
2023-05-21T19:24:46.980Z,19.01
2023-05-21T19:26:49.596Z,19.06
2023-05-21T19:28:53.632Z,19.10
2023-05-21T19:30:58.329Z,19.17
2023-05-21T19:33:00.972Z,19.18
2023-05-21T19:35:04.650Z,19.18
2023-05-21T19:37:08.075Z,19.21
2023-05-21T19:39:10.724Z,19.23
2023-05-21T19:41:13.414Z,19.24
2023-05-21T19:43:16.032Z,19.27
2023-05-21T19:45:21.586Z,19.21
2023-05-21T19:47:25.741Z,19.23
2023-05-21T19:49:28.622Z,19.25
2023-05-21T19:51:31.313Z,19.27
2023-05-21T19:53:36.912Z,19.25
2023-05-21T19:55:39.509Z,19.24
2023-05-21T19:57:42.143Z,19.22
2023-05-21T19:59:44.760Z,19.23
2023-05-21T20:01:47.449Z,19.22
2023-05-21T20:03:51.782Z,19.22
2023-05-21T20:05:54.560Z,19.20
2023-05-21T20:07:58.392Z,19.16
2023-05-21T20:10:00.968Z,19.07
2023-05-21T20:12:03.711Z,18.92
2023-05-21T20:14:06.418Z,18.92
2023-05-21T20:16:10.252Z,18.86
2023-05-21T20:18:13.238Z,18.86
2023-05-21T20:20:18.687Z,18.83
2023-05-21T20:22:21.310Z,18.78
2023-05-21T20:24:23.918Z,18.73
2023-05-21T20:26:27.091Z,18.72
2023-05-21T20:28:29.713Z,18.69
2023-05-21T20:30:33.380Z,18.65
2023-05-21T20:32:36.050Z,18.62
2023-05-21T20:34:47.209Z,18.61
2023-05-21T20:36:58.941Z,18.64
2023-05-21T20:39:02.310Z,18.67
2023-05-21T20:41:06.065Z,18.66
2023-05-21T20:43:11.831Z,18.64
2023-05-21T20:45:15.838Z,18.66
2023-05-21T20:47:20.168Z,18.66
2023-05-21T20:49:24.652Z,18.65
2023-05-21T20:51:27.590Z,18.62
2023-05-21T20:53:32.514Z,18.63
2023-05-21T20:55:35.523Z,18.58
2023-05-21T20:57:38.151Z,18.59
2023-05-21T20:59:40.815Z,18.60
2023-05-21T21:01:43.451Z,18.65
2023-05-21T21:03:46.674Z,18.60
2023-05-21T21:05:49.480Z,18.58
2023-05-21T21:07:55.499Z,18.60
2023-05-21T21:09:59.896Z,18.59
2023-05-21T21:12:14.335Z,18.58
2023-05-21T21:14:25.647Z,18.58
2023-05-21T21:16:28.319Z,18.59
2023-05-21T21:18:30.941Z,18.61
2023-05-21T21:20:33.590Z,18.59
2023-05-21T21:22:36.297Z,18.56
2023-05-21T21:24:38.862Z,18.50
2023-05-21T21:26:42.807Z,18.47
2023-05-21T21:28:46.618Z,18.44
2023-05-21T21:30:49.478Z,18.41
2023-05-21T21:32:52.151Z,18.35
2023-05-21T21:34:54.752Z,18.33
2023-05-21T21:36:57.344Z,18.31
2023-05-21T21:39:00.322Z,18.25
2023-05-21T21:41:03.305Z,18.21
2023-05-21T21:43:07.284Z,18.14
2023-05-21T21:45:11.025Z,18.09
2023-05-21T21:47:13.625Z,17.93
2023-05-21T21:49:17.163Z,17.91
2023-05-21T21:51:23.113Z,17.85
2023-05-21T21:53:26.237Z,17.87
2023-05-21T21:55:29.543Z,17.88
2023-05-21T21:57:32.289Z,17.86
2023-05-21T21:59:39.297Z,17.85
2023-05-21T22:01:41.979Z,17.76
2023-05-21T22:03:44.599Z,17.75
2023-05-21T22:05:47.203Z,17.73
2023-05-21T22:07:49.842Z,17.73
2023-05-21T22:09:52.436Z,17.70
2023-05-21T22:11:55.141Z,17.67
2023-05-21T22:13:57.764Z,17.67
2023-05-21T22:16:01.948Z,17.69
2023-05-21T22:18:04.916Z,17.66
2023-05-21T22:20:08.862Z,17.61
2023-05-21T22:22:12.053Z,17.60
2023-05-21T22:24:30.422Z,17.58
2023-05-21T22:26:34.474Z,17.59
2023-05-21T22:28:37.139Z,17.58
2023-05-21T22:30:39.968Z,17.60
2023-05-21T22:32:44.266Z,17.62
2023-05-21T22:34:46.911Z,17.63
2023-05-21T22:36:49.500Z,17.64
2023-05-21T22:38:52.145Z,17.64
2023-05-21T22:40:54.843Z,17.66
2023-05-21T22:42:57.685Z,17.64
2023-05-21T22:45:00.942Z,17.61
2023-05-21T22:47:03.765Z,17.55
2023-05-21T22:49:10.292Z,17.38
2023-05-21T22:51:14.054Z,17.17
2023-05-21T22:53:17.296Z,17.14
2023-05-21T22:55:19.921Z,17.12
2023-05-21T22:57:22.528Z,17.04
2023-05-21T22:59:25.180Z,16.94
2023-05-21T23:01:27.997Z,16.93
2023-05-21T23:03:31.071Z,16.93
2023-05-21T23:05:35.066Z,16.95
2023-05-21T23:07:37.748Z,16.97
2023-05-21T23:09:41.001Z,16.99
2023-05-21T23:11:43.696Z,17.00
2023-05-21T23:13:46.307Z,17.03
2023-05-21T23:15:50.760Z,17.01
2023-05-21T23:17:53.375Z,16.98
2023-05-21T23:19:56.117Z,16.98
2023-05-21T23:22:00.281Z,17.01
2023-05-21T23:24:03.288Z,17.02
2023-05-21T23:26:05.924Z,17.03
2023-05-21T23:28:08.578Z,17.04
2023-05-21T23:30:11.953Z,17.02
2023-05-21T23:32:14.609Z,16.95
2023-05-21T23:34:17.270Z,16.81
2023-05-21T23:36:19.994Z,16.74
2023-05-21T23:38:26.019Z,16.70
2023-05-21T23:40:28.580Z,16.55
2023-05-21T23:42:31.226Z,16.49
2023-05-21T23:44:33.867Z,16.49
2023-05-21T23:46:36.537Z,16.52
2023-05-21T23:48:39.546Z,16.53
2023-05-21T23:50:42.126Z,16.54
2023-05-21T23:52:44.968Z,16.56
2023-05-21T23:54:48.950Z,16.60
2023-05-21T23:56:51.543Z,16.62
2023-05-21T23:58:54.149Z,16.64
